Time;durP1;ratioP1;P1;durP2;ratioP2;P2;SDS_P1;SDS_P2;PMS_P1;PMS_P2;Temp;Humidity;BMP_temperature;BMP_pressure;BME280_temperature;BME280_humidity;BME280_pressure;Samples;Min_cycle;Max_cycle;Signal;HPM_P1;HPM_P2
2021/07/28 00:00:24;;;;;;;14.10;10.90;;;;;;;25.06;62.54;100449.71;1760796;80;21515;-67
2021/07/28 00:02:51;;;;;;;16.75;11.28;;;;;;;24.93;62.22;100444.72;1756859;80;21124;-67
2021/07/28 00:05:18;;;;;;;14.85;10.88;;;;;;;24.84;62.51;100440.62;1760000;80;21550;-66
2021/07/28 00:07:46;;;;;;;15.18;12.00;;;;;;;24.79;62.83;100441.79;1759802;80;21054;-67
2021/07/28 00:10:13;;;;;;;15.53;10.58;;;;;;;24.78;62.98;100433.40;1740505;80;21091;-67
2021/07/28 00:12:40;;;;;;;14.18;10.75;;;;;;;24.75;63.35;100419.87;1757881;80;21524;-67
2021/07/28 00:15:07;;;;;;;15.93;11.33;;;;;;;24.75;63.61;100419.05;1762463;80;21054;-67
2021/07/28 00:17:37;;;;;;;12.98;10.85;;;;;;;24.70;63.82;100418.88;1763023;80;21615;-67
2021/07/28 00:20:10;;;;;;;19.87;12.75;;;;;;;24.65;63.94;100416.30;1738816;80;21058;-67
2021/07/28 00:25:24;;;;;;;15.28;10.45;;;;;;;24.59;64.36;100428.43;1759195;80;21129;-67
2021/07/28 00:27:50;;;;;;;13.20;10.88;;;;;;;24.58;64.15;100410.13;1758299;80;21050;-67
2021/07/28 00:30:18;;;;;;;17.95;12.13;;;;;;;24.61;64.35;100402.13;1758699;80;21016;-67
2021/07/28 00:32:44;;;;;;;14.78;11.35;;;;;;;24.64;64.71;100386.38;1740908;80;21106;-66
2021/07/28 00:35:11;;;;;;;17.17;12.25;;;;;;;24.64;64.69;100385.56;1750833;80;21475;-67
2021/07/28 00:37:37;;;;;;;18.75;13.00;;;;;;;24.62;65.46;100389.00;1737978;80;21751;-67
2021/07/28 00:40:06;;;;;;;12.20;10.90;;;;;;;24.61;65.81;100393.56;1760577;80;21042;-67
2021/07/28 00:42:33;;;;;;;13.83;11.43;;;;;;;24.62;65.37;100391.69;1749200;80;21097;-68
2021/07/28 00:45:00;;;;;;;18.30;11.78;;;;;;;24.56;64.29;100399.27;1760917;80;21505;-69
2021/07/28 00:47:27;;;;;;;14.50;11.93;;;;;;;24.45;64.45;100406.13;1739912;81;21457;-67
2021/07/28 00:49:54;;;;;;;14.63;11.93;;;;;;;24.38;64.74;100401.31;1752166;80;21049;-67
2021/07/28 00:52:21;;;;;;;19.27;13.72;;;;;;;24.39;65.13;100401.06;1742838;80;21027;-68
2021/07/28 00:54:48;;;;;;;16.73;13.70;;;;;;;24.40;65.33;100401.38;1748268;80;21058;-68
2021/07/28 00:57:15;;;;;;;18.50;14.03;;;;;;;24.39;65.39;100401.06;1744399;80;21071;-68
2021/07/28 00:59:41;;;;;;;16.77;13.20;;;;;;;24.41;65.27;100408.92;1740294;80;21050;-68
2021/07/28 01:02:09;;;;;;;13.88;12.35;;;;;;;24.40;65.17;100404.60;1747872;81;21126;-68
2021/07/28 01:04:35;;;;;;;16.55;13.05;;;;;;;24.38;65.27;100398.62;1715478;81;21070;-68
2021/07/28 01:07:02;;;;;;;14.58;13.05;;;;;;;24.35;65.38;100393.66;1733986;81;21031;-67
2021/07/28 01:09:31;;;;;;;16.32;12.58;;;;;;;24.37;65.77;100403.15;1744027;80;21070;-68
2021/07/28 01:11:59;;;;;;;17.67;13.05;;;;;;;24.41;65.42;100411.61;1745726;81;21007;-67
2021/07/28 01:14:26;;;;;;;15.20;12.90;;;;;;;24.40;65.16;100402.73;1751412;81;21157;-68
2021/07/28 01:16:53;;;;;;;17.15;12.90;;;;;;;24.41;65.73;100403.05;1738683;81;21042;-68
2021/07/28 01:19:20;;;;;;;17.32;13.85;;;;;;;24.40;65.86;100404.60;1737941;80;21118;-67
2021/07/28 01:21:48;;;;;;;16.90;13.15;;;;;;;24.40;65.89;100403.25;1741992;81;21082;-67
2021/07/28 01:24:15;;;;;;;16.90;13.88;;;;;;;24.35;65.86;100405.23;1748120;81;21089;-68
2021/07/28 01:26:43;;;;;;;16.15;12.93;;;;;;;24.32;65.57;100402.15;1736152;81;21536;-68
2021/07/28 01:29:13;;;;;;;17.48;12.43;;;;;;;24.30;65.27;100403.70;1732329;81;21121;-68
2021/07/28 01:31:43;;;;;;;17.82;12.23;;;;;;;24.31;65.29;100405.37;1727006;80;21128;-68
2021/07/28 01:34:11;;;;;;;19.62;12.45;;;;;;;24.33;64.89;100407.31;1738497;80;21110;-68
2021/07/28 01:36:39;;;;;;;16.02;12.37;;;;;;;24.35;65.08;100397.70;1715498;82;21534;-67
2021/07/28 01:39:05;;;;;;;13.60;11.00;;;;;;;24.32;65.38;100396.77;1693000;80;21870;-68
2021/07/28 01:41:32;;;;;;;17.65;11.68;;;;;;;24.30;65.45;100401.02;1744208;82;21503;-67
2021/07/28 01:43:59;;;;;;;15.60;11.53;;;;;;;24.27;65.42;100403.59;1730938;80;21051;-68
2021/07/28 01:46:25;;;;;;;13.28;11.63;;;;;;;24.24;64.89;100403.20;1746332;81;21510;-68
2021/07/28 01:48:52;;;;;;;16.05;12.03;;;;;;;24.19;64.89;100394.45;1736458;80;21752;-68
2021/07/28 01:51:18;;;;;;;14.70;11.40;;;;;;;24.18;65.38;100390.63;1739093;82;21494;-68
2021/07/28 01:53:45;;;;;;;14.70;11.75;;;;;;;24.21;65.75;100389.68;1681968;82;21089;-68
2021/07/28 01:56:13;;;;;;;14.33;11.30;;;;;;;24.24;65.88;100385.72;1717816;82;21526;-68
2021/07/28 01:58:42;;;;;;;17.00;12.28;;;;;;;24.27;65.85;100380.74;1739101;81;21522;-68
2021/07/28 02:01:09;;;;;;;15.45;11.57;;;;;;;24.29;65.88;100380.03;1739080;80;21050;-67
2021/07/28 02:03:35;;;;;;;20.45;12.45;;;;;;;24.29;65.70;100366.59;1741106;80;21098;-67
2021/07/28 02:06:02;;;;;;;15.90;11.38;;;;;;;24.27;65.60;100361.92;1739399;82;21090;-68
2021/07/28 02:08:29;;;;;;;12.25;10.95;;;;;;;24.23;65.60;100359.37;1740239;82;21042;-68
2021/07/28 02:10:55;;;;;;;15.00;11.22;;;;;;;24.17;65.72;100356.18;1723531;82;21066;-67
2021/07/28 02:13:23;;;;;;;17.35;10.65;;;;;;;24.14;65.86;100353.94;1737344;82;21130;-67
2021/07/28 02:15:49;;;;;;;15.90;11.55;;;;;;;24.16;65.85;100365.30;1726646;82;21111;-67
2021/07/28 02:18:17;;;;;;;14.93;11.10;;;;;;;24.18;65.73;100348.95;1739117;80;21086;-67
2021/07/28 02:20:44;;;;;;;16.40;11.08;;;;;;;24.17;65.72;100348.64;1745474;82;21090;-67
2021/07/28 02:23:11;;;;;;;14.90;11.55;;;;;;;24.16;65.64;100341.60;1745760;81;21078;-67
2021/07/28 02:25:37;;;;;;;15.20;12.28;;;;;;;24.11;65.61;100342.27;1736713;82;21108;-67
2021/07/28 02:28:04;;;;;;;13.22;11.10;;;;;;;24.07;65.79;100339.68;1740424;80;21471;-67
2021/07/28 02:30:30;;;;;;;14.18;11.30;;;;;;;24.04;65.96;100342.29;1720068;80;21090;-67
2021/07/28 02:32:57;;;;;;;13.05;11.60;;;;;;;24.04;65.95;100348.16;1731505;82;21129;-67
2021/07/28 02:35:24;;;;;;;15.13;10.58;;;;;;;24.08;66.09;100331.94;1725690;82;21202;-67
2021/07/28 02:37:50;;;;;;;16.87;11.73;;;;;;;24.12;66.19;100330.45;1720200;82;21493;-67
2021/07/28 02:40:19;;;;;;;15.65;12.40;;;;;;;24.14;66.18;100323.03;1732227;82;21954;-68
2021/07/28 02:42:45;;;;;;;15.70;11.45;;;;;;;24.16;66.16;100321.44;1722969;81;21024;-67
2021/07/28 02:45:12;;;;;;;14.55;11.48;;;;;;;24.15;66.13;100324.66;1732064;82;21067;-68
2021/07/28 02:47:39;;;;;;;12.85;10.78;;;;;;;24.12;66.18;100327.77;1719258;82;21062;-67
2021/07/28 02:50:06;;;;;;;14.38;10.30;;;;;;;24.11;65.92;100349.80;1720570;82;21406;-68
2021/07/28 02:52:33;;;;;;;14.80;10.85;;;;;;;24.10;65.96;100346.80;1729228;82;21606;-68
2021/07/28 02:55:05;;;;;;;13.88;10.45;;;;;;;24.15;65.80;100352.88;1726304;81;21358;-67
2021/07/28 02:57:29;;;;;;;13.10;11.03;;;;;;;24.17;65.45;100342.73;1728820;82;21043;-67
2021/07/28 02:59:56;;;;;;;14.53;10.72;;;;;;;24.16;65.54;100330.35;1728753;80;21062;-67
2021/07/28 03:02:23;;;;;;;14.53;11.28;;;;;;;24.17;66.07;100324.45;1726766;81;21098;-67
2021/07/28 03:04:49;;;;;;;13.83;11.38;;;;;;;24.19;66.26;100322.36;1734029;80;21495;-56
2021/07/28 03:07:16;;;;;;;14.93;11.95;;;;;;;24.21;66.63;100321.13;1730568;81;21047;-60
2021/07/28 03:09:42;;;;;;;13.50;10.70;;;;;;;24.26;66.67;100319.95;1734893;80;21059;-57
2021/07/28 03:12:09;;;;;;;13.98;10.50;;;;;;;24.35;66.63;100319.72;1713706;83;21107;-58
2021/07/28 03:14:36;;;;;;;12.63;10.50;;;;;;;24.43;66.78;100322.16;1738811;80;21120;-59
2021/07/28 03:17:03;;;;;;;14.53;11.18;;;;;;;24.48;66.53;100331.21;1729510;80;21119;-58
2021/07/28 03:19:29;;;;;;;14.90;11.08;;;;;;;24.53;66.45;100342.67;1731510;82;21056;-58
2021/07/28 03:21:55;;;;;;;12.70;10.45;;;;;;;24.55;66.21;100352.72;1728409;82;21082;-58
2021/07/28 03:24:22;;;;;;;12.90;11.57;;;;;;;24.58;65.52;100360.87;1733130;81;21047;-59
2021/07/28 03:26:49;;;;;;;14.87;11.40;;;;;;;24.59;65.51;100363.88;1738718;80;21044;-57
2021/07/28 03:29:15;;;;;;;15.78;10.82;;;;;;;24.59;65.70;100374.10;1706984;82;21165;-59
2021/07/28 03:31:43;;;;;;;13.15;11.43;;;;;;;24.60;65.57;100384.36;1732147;80;21054;-58
2021/07/28 03:34:10;;;;;;;13.93;10.65;;;;;;;24.65;65.29;100390.73;1737747;80;21109;-59
2021/07/28 03:36:37;;;;;;;14.60;11.15;;;;;;;24.69;65.05;100385.75;1739897;80;21054;-58
2021/07/28 03:39:03;;;;;;;13.72;11.28;;;;;;;24.71;65.13;100398.45;1755393;80;21601;-58
2021/07/28 03:41:29;;;;;;;14.75;12.10;;;;;;;24.65;65.59;100398.81;1726656;82;21128;-57
2021/07/28 03:43:56;;;;;;;12.85;11.53;;;;;;;24.61;65.57;100403.48;1735307;80;21034;-61
2021/07/28 03:46:22;;;;;;;15.28;11.10;;;;;;;24.53;65.62;100403.20;1744318;80;21617;-59
2021/07/28 03:48:50;;;;;;;17.10;11.93;;;;;;;24.48;65.60;100410.55;1747154;80;21011;-59
2021/07/28 03:51:17;;;;;;;12.75;11.45;;;;;;;24.42;65.53;100418.66;1741200;80;21035;-59
2021/07/28 03:53:44;;;;;;;14.70;11.12;;;;;;;24.33;65.74;100425.33;1728950;80;21090;-60
2021/07/28 03:56:10;;;;;;;12.75;10.93;;;;;;;24.21;66.04;100415.22;1745673;82;21569;-60
2021/07/28 03:58:36;;;;;;;16.00;10.78;;;;;;;24.15;66.21;100404.48;1741232;80;21482;-60
2021/07/28 04:01:03;;;;;;;13.85;10.28;;;;;;;24.15;66.30;100397.77;1736325;80;21137;-64
2021/07/28 04:03:30;;;;;;;14.50;11.38;;;;;;;24.16;65.98;100380.58;1729435;80;21090;-62
2021/07/28 04:05:57;;;;;;;14.05;10.98;;;;;;;24.17;66.15;100384.93;1735322;81;21137;-58
2021/07/28 04:08:24;;;;;;;15.13;9.90;;;;;;;24.15;66.56;100391.05;1746279;82;21019;-60
2021/07/28 04:10:50;;;;;;;12.50;10.32;;;;;;;24.14;66.72;100398.30;1742625;82;21070;-63
2021/07/28 04:13:17;;;;;;;12.73;10.70;;;;;;;24.19;66.39;100394.45;1717736;82;21019;-64
2021/07/28 04:15:43;;;;;;;15.60;10.80;;;;;;;24.29;66.45;100393.48;1741150;80;21133;-64
2021/07/28 04:18:10;;;;;;;13.10;10.55;;;;;;;24.40;66.26;100396.53;1740503;82;21167;-68
2021/07/28 04:20:36;;;;;;;14.60;10.58;;;;;;;24.50;66.06;100386.66;1743589;80;21065;-70
2021/07/28 04:23:04;;;;;;;14.18;10.65;;;;;;;24.57;65.50;100383.45;1733172;80;21034;-69
2021/07/28 04:25:30;;;;;;;18.32;11.40;;;;;;;24.64;65.18;100390.42;1734396;82;22319;-69
2021/07/28 04:27:57;;;;;;;13.48;10.23;;;;;;;24.69;64.80;100390.31;1745871;80;21030;-69
2021/07/28 04:30:23;;;;;;;13.32;10.03;;;;;;;24.76;64.66;100405.89;1742023;80;21783;-68
2021/07/28 04:32:50;;;;;;;17.52;10.63;;;;;;;24.82;64.62;100416.61;1745690;81;21703;-69
2021/07/28 04:35:18;;;;;;;14.80;10.35;;;;;;;24.89;64.60;100417.92;1747023;81;21077;-68
2021/07/28 04:37:44;;;;;;;13.62;10.08;;;;;;;24.91;64.57;100407.75;1716346;81;21046;-71
2021/07/28 04:40:13;;;;;;;16.02;11.28;;;;;;;24.92;64.54;100400.00;1744283;80;21098;-69
2021/07/28 04:42:41;;;;;;;12.13;10.82;;;;;;;24.96;64.52;100395.00;1743681;80;21094;-64
2021/07/28 04:45:08;;;;;;;13.98;10.88;;;;;;;24.99;64.09;100400.77;1753254;80;21560;-57
2021/07/28 04:47:35;;;;;;;12.58;10.05;;;;;;;25.06;64.09;100405.29;1748756;80;21000;-60
2021/07/28 04:50:02;;;;;;;13.98;9.58;;;;;;;25.13;63.79;100394.79;1722189;81;21106;-61
2021/07/28 04:52:28;;;;;;;11.50;9.68;;;;;;;25.18;63.97;100391.42;1742815;81;21525;-62
2021/07/28 04:54:54;;;;;;;15.13;10.40;;;;;;;25.25;64.20;100394.91;1735542;81;21110;-59
2021/07/28 04:57:21;;;;;;;15.23;9.95;;;;;;;25.31;64.31;100390.53;1741961;80;21063;-59
2021/07/28 04:59:48;;;;;;;13.90;10.28;;;;;;;25.36;64.08;100390.69;1750296;81;21082;-60
2021/07/28 05:02:14;;;;;;;14.43;11.03;;;;;;;25.40;64.03;100392.73;1739187;81;21067;-63
2021/07/28 05:04:47;;;;;;;14.65;9.48;;;;;;;25.45;64.08;100387.19;1744891;81;21515;-71
2021/07/28 05:07:10;;;;;;;14.38;10.25;;;;;;;25.50;62.99;100380.61;1739544;81;22323;-68
2021/07/28 05:09:38;;;;;;;13.85;9.68;;;;;;;25.57;62.53;100380.87;1744552;81;21049;-68
2021/07/28 05:12:07;;;;;;;14.80;10.32;;;;;;;25.67;62.40;100376.32;1740177;80;21038;-67
2021/07/28 05:14:33;;;;;;;14.13;9.63;;;;;;;25.75;62.17;100374.66;1733823;81;21113;-67
2021/07/28 05:17:00;;;;;;;14.70;10.40;;;;;;;25.80;62.30;100378.57;1746453;81;21050;-67
2021/07/28 05:19:26;;;;;;;13.78;10.28;;;;;;;25.83;62.35;100386.21;1740547;81;21125;-68
2021/07/28 05:21:53;;;;;;;15.13;9.95;;;;;;;25.85;62.03;100393.55;1747996;81;21043;-69
2021/07/28 05:24:19;;;;;;;12.50;10.30;;;;;;;25.85;61.66;100393.55;1752759;81;21035;-70
2021/07/28 05:26:46;;;;;;;11.35;9.70;;;;;;;25.85;61.19;100401.62;1742501;81;22370;-72
2021/07/28 05:29:13;;;;;;;12.13;10.35;;;;;;;25.85;61.14;100397.59;1743955;81;21089;-69
2021/07/28 05:31:40;;;;;;;20.27;10.25;;;;;;;25.89;61.16;100398.77;1733345;80;21076;-66
2021/07/28 05:34:07;;;;;;;16.55;10.08;;;;;;;25.97;62.20;100389.08;1731883;81;21047;-69
2021/07/28 05:36:33;;;;;;;14.18;9.65;;;;;;;26.04;62.70;100387.16;1730699;81;21561;-70
2021/07/28 05:39:00;;;;;;;14.80;10.20;;;;;;;26.09;63.04;100379.21;1741135;80;21545;-69
2021/07/28 05:41:27;;;;;;;14.53;10.70;;;;;;;26.11;62.78;100378.45;1730329;80;21556;-69
2021/07/28 05:43:54;;;;;;;17.73;9.28;;;;;;;26.12;62.12;100370.64;1733375;80;21641;-70
2021/07/28 05:46:20;;;;;;;12.90;9.90;;;;;;;26.11;61.40;100372.24;1745745;80;21574;-69
2021/07/28 05:48:47;;;;;;;13.88;11.35;;;;;;;26.11;61.31;100367.66;1732715;80;21020;-69
2021/07/28 05:51:13;;;;;;;18.65;10.30;;;;;;;26.06;61.44;100366.70;1732562;81;21067;-65
2021/07/28 05:53:40;;;;;;;11.28;9.13;;;;;;;26.06;61.24;100366.17;1709274;82;21043;-66
2021/07/28 05:56:06;;;;;;;12.20;9.30;;;;;;;26.09;60.82;100368.42;1728708;81;21051;-66
2021/07/28 05:58:34;;;;;;;11.22;9.73;;;;;;;26.11;60.85;100363.63;1728147;82;21003;-60
2021/07/28 06:01:00;;;;;;;13.32;9.80;;;;;;;26.14;60.52;100359.13;1729597;80;20996;-70
2021/07/28 06:03:27;;;;;;;11.60;8.70;;;;;;;26.16;60.28;100354.02;1727582;82;21075;-69
2021/07/28 06:06:01;;;;;;;11.00;9.00;;;;;;;26.18;59.88;100348.70;1730433;81;21126;-62
2021/07/28 06:08:28;;;;;;;12.30;9.68;;;;;;;26.17;59.48;100351.63;1715227;81;21074;-65
2021/07/28 06:10:54;;;;;;;13.62;9.63;;;;;;;26.17;59.41;100350.28;1723419;81;21109;-66
2021/07/28 06:13:21;;;;;;;11.85;9.18;;;;;;;26.17;59.21;100345.70;1724860;80;21236;-65
2021/07/28 06:15:48;;;;;;;11.50;9.13;;;;;;;26.18;59.06;100347.36;1733956;80;21141;-63
2021/07/28 06:18:17;;;;;;;11.53;8.28;;;;;;;26.20;58.54;100349.83;1733175;80;21041;-63
2021/07/28 06:20:44;;;;;;;12.55;8.00;;;;;;;26.22;58.87;100341.80;1733460;81;22015;-66
2021/07/28 06:23:10;;;;;;;11.15;8.95;;;;;;;26.25;58.48;100347.28;1718220;82;21503;-64
2021/07/28 06:25:37;;;;;;;13.55;8.63;;;;;;;26.30;58.48;100339.33;1734823;80;21075;-67
2021/07/28 06:28:04;;;;;;;10.78;8.18;;;;;;;26.35;58.64;100344.86;1730778;80;21629;-68
2021/07/28 06:30:31;;;;;;;11.08;8.90;;;;;;;26.37;58.17;100346.80;1728612;80;21055;-64
2021/07/28 06:32:58;;;;;;;9.50;8.10;;;;;;;26.39;58.01;100338.48;1738268;80;21079;-63
2021/07/28 06:35:25;;;;;;;14.68;8.90;;;;;;;26.40;58.14;100340.95;1737925;80;21043;-63
2021/07/28 06:37:52;;;;;;;22.42;10.70;;;;;;;26.44;58.17;100334.56;1747056;81;21055;-65
2021/07/28 06:40:18;;;;;;;13.88;8.28;;;;;;;26.48;58.19;100331.72;1751679;80;21059;-65
2021/07/28 06:42:47;;;;;;;18.85;9.58;;;;;;;26.53;58.44;100332.36;1746797;80;21062;-65
2021/07/28 06:45:14;;;;;;;14.83;8.55;;;;;;;26.57;58.93;100331.68;1749630;81;21080;-65
2021/07/28 06:47:40;;;;;;;11.00;8.88;;;;;;;26.65;58.75;100339.48;1742809;81;21089;-62
2021/07/28 06:50:10;;;;;;;22.42;9.65;;;;;;;26.71;57.70;100340.96;1744903;81;21565;-63
2021/07/28 06:52:38;;;;;;;13.13;8.53;;;;;;;26.76;57.99;100346.48;1746636;81;21086;-63
2021/07/28 06:55:06;;;;;;;17.55;9.30;;;;;;;26.81;58.92;100349.31;1745043;80;21545;-64
2021/07/28 06:57:33;;;;;;;10.82;8.35;;;;;;;26.87;59.31;100357.84;1742909;80;21161;-63
2021/07/28 07:00:01;;;;;;;12.60;8.33;;;;;;;26.96;59.44;100353.74;1746315;80;21580;-64
2021/07/28 07:02:29;;;;;;;10.28;8.38;;;;;;;27.04;58.07;100349.89;1740641;80;21097;-64
2021/07/28 07:04:56;;;;;;;12.78;8.38;;;;;;;27.06;57.72;100347.78;1748504;80;21046;-70
2021/07/28 07:07:22;;;;;;;19.10;9.35;;;;;;;27.08;57.60;100357.81;1745912;80;21192;-68
2021/07/28 07:09:54;;;;;;;15.18;9.43;;;;;;;27.11;57.11;100356.00;1747526;80;21181;-67
2021/07/28 07:12:22;;;;;;;13.32;9.50;;;;;;;27.13;57.69;100364.69;1735592;80;21558;-73
2021/07/28 07:14:49;;;;;;;11.22;8.63;;;;;;;27.14;56.77;100370.39;1740392;80;21112;-69
2021/07/28 07:17:15;;;;;;;17.65;9.85;;;;;;;27.16;57.06;100362.87;1742850;80;21165;-66
2021/07/28 07:19:44;;;;;;;11.63;8.88;;;;;;;27.23;56.48;100366.30;1709181;83;21478;-70
2021/07/28 07:22:11;;;;;;;9.90;8.23;;;;;;;27.35;57.08;100368.20;1714864;83;21114;-69
2021/07/28 07:24:38;;;;;;;14.85;9.85;;;;;;;27.46;57.01;100367.93;1711962;82;21110;-69
2021/07/28 07:27:06;;;;;;;12.47;8.70;;;;;;;27.55;56.88;100368.66;1714038;83;21611;-66
2021/07/28 07:29:33;;;;;;;10.20;8.43;;;;;;;27.66;56.58;100377.03;1710976;82;21103;-72
2021/07/28 07:32:02;;;;;;;17.00;9.80;;;;;;;27.75;56.62;100374.24;1708698;82;22688;-63
2021/07/28 07:34:29;;;;;;;14.75;10.10;;;;;;;27.81;56.05;100380.06;1707105;82;21281;-63
2021/07/28 07:36:56;;;;;;;11.97;8.63;;;;;;;27.87;55.91;100373.69;1684891;83;21609;-74
2021/07/28 07:39:22;;;;;;;11.25;9.75;;;;;;;27.90;55.71;100374.56;1708994;82;21589;-65
2021/07/28 07:41:49;;;;;;;11.10;9.48;;;;;;;27.93;55.40;100376.02;1710020;82;21118;-65
2021/07/28 07:44:17;;;;;;;13.43;9.80;;;;;;;27.97;55.60;100377.17;1708310;82;21020;-63
2021/07/28 07:46:44;;;;;;;15.72;10.28;;;;;;;28.00;55.25;100370.48;1709291;83;21537;-63
2021/07/28 07:49:10;;;;;;;15.98;9.60;;;;;;;28.00;55.20;100365.88;1705902;82;21162;-65
2021/07/28 07:51:37;;;;;;;12.43;9.75;;;;;;;28.04;55.03;100364.88;1681140;83;21078;-64
2021/07/28 07:54:04;;;;;;;12.05;9.93;;;;;;;28.05;55.07;100360.58;1710701;82;21126;-64
2021/07/28 07:56:30;;;;;;;12.68;9.03;;;;;;;28.06;55.47;100352.77;1681011;82;21082;-63
2021/07/28 07:58:57;;;;;;;11.50;10.08;;;;;;;28.12;55.72;100354.49;1713852;82;21192;-66
2021/07/28 08:01:24;;;;;;;13.70;9.50;;;;;;;28.22;55.75;100358.48;1712483;83;21679;-65
2021/07/28 08:03:52;;;;;;;28.00;11.90;;;;;;;28.33;55.12;100362.49;1711317;83;21086;-64
2021/07/28 08:06:18;;;;;;;16.35;10.88;;;;;;;28.42;54.16;100362.11;1706848;82;21087;-67
2021/07/28 08:08:46;;;;;;;13.90;9.28;;;;;;;28.45;54.17;100356.22;1706004;82;21082;-63
2021/07/28 08:11:13;;;;;;;12.78;10.08;;;;;;;28.50;53.73;100350.90;1707470;83;21155;-64
2021/07/28 08:13:40;;;;;;;12.15;9.40;;;;;;;28.52;52.52;100353.63;1709312;82;21150;-64
2021/07/28 08:16:16;;;;;;;14.47;9.85;;;;;;;28.53;52.56;100348.52;1705365;83;21121;-66
2021/07/28 08:18:43;;;;;;;11.83;10.00;;;;;;;28.55;52.54;100346.93;1704058;82;21664;-63
2021/07/28 08:21:10;;;;;;;12.47;9.85;;;;;;;28.53;52.19;100349.88;1706839;83;21128;-65
2021/07/28 08:23:38;;;;;;;14.73;9.83;;;;;;;28.52;52.41;100343.35;1709389;82;21156;-74
2021/07/28 08:26:04;;;;;;;13.50;10.00;;;;;;;28.54;52.55;100350.69;1687225;83;21596;-71
2021/07/28 08:28:31;;;;;;;12.15;10.38;;;;;;;28.57;52.42;100350.23;1682717;83;21059;-72
2021/07/28 08:30:57;;;;;;;11.65;9.70;;;;;;;28.61;52.25;100350.57;1706457;82;21134;-64
2021/07/28 08:33:25;;;;;;;16.25;9.18;;;;;;;28.62;52.31;100341.40;1672505;84;21256;-72
2021/07/28 08:35:57;;;;;;;11.45;9.83;;;;;;;28.66;51.71;100342.54;1688105;83;21523;-68
2021/07/28 08:38:24;;;;;;;13.53;10.20;;;;;;;28.68;51.71;100343.11;1735317;80;21007;-72
2021/07/28 08:41:03;;;;;;;11.33;9.58;;;;;;;28.67;52.06;100339.59;1723719;80;21063;-74
2021/07/28 08:43:36;;;;;;;13.78;10.43;;;;;;;28.68;51.83;100334.48;1733343;80;21661;-72
2021/07/28 08:46:05;;;;;;;12.58;9.83;;;;;;;28.73;51.98;100335.08;1728492;80;21060;-69
2021/07/28 08:48:31;;;;;;;17.62;9.83;;;;;;;28.78;51.54;100335.19;1732954;80;21557;-72
2021/07/28 08:50:59;;;;;;;13.28;9.83;;;;;;;28.83;51.86;100327.15;1734215;80;21037;-66
2021/07/28 08:53:26;;;;;;;15.72;9.40;;;;;;;28.89;51.40;100322.63;1728695;81;21583;-69
2021/07/28 08:55:54;;;;;;;12.43;9.73;;;;;;;28.92;52.43;100324.84;1744138;80;21593;-68
2021/07/28 08:58:22;;;;;;;17.52;9.75;;;;;;;28.98;52.29;100321.13;1734419;81;21471;-68
2021/07/28 09:00:49;;;;;;;12.10;8.85;;;;;;;29.03;52.01;100317.18;1722675;81;21063;-72
2021/07/28 09:03:16;;;;;;;11.88;10.43;;;;;;;29.09;51.92;100325.66;1726208;80;21038;-69
2021/07/28 09:05:48;;;;;;;17.37;10.00;;;;;;;29.14;51.71;100319.50;1730519;80;21122;-68
2021/07/28 09:08:33;;;;;;;13.25;9.50;;;;;;;29.17;51.79;100323.62;1731871;80;21095;-69
2021/07/28 09:11:08;;;;;;;24.12;10.43;;;;;;;29.21;51.77;100318.81;1722774;82;21620;-70
2021/07/28 09:13:41;;;;;;;11.75;9.45;;;;;;;29.31;52.01;100314.09;1731460;82;21043;-67
2021/07/28 09:16:10;;;;;;;29.65;12.15;;;;;;;29.38;51.40;100319.33;1732814;80;21132;-65
2021/07/28 09:18:43;;;;;;;12.45;9.68;;;;;;;29.41;51.73;100314.77;1729381;80;21070;-69
2021/07/28 09:21:27;;;;;;;13.43;9.53;;;;;;;29.46;51.45;100309.42;1731754;80;21019;-67
2021/07/28 09:24:14;;;;;;;12.18;9.38;;;;;;;29.50;50.63;100299.70;1721877;82;21046;-72
2021/07/28 09:26:53;;;;;;;10.63;9.53;;;;;;;29.51;50.47;100328.46;1724104;80;21235;-68
2021/07/28 09:29:21;;;;;;;13.45;10.00;;;;;;;29.47;50.75;100311.05;1716177;81;21609;-74
2021/07/28 09:31:53;;;;;;;26.73;12.70;;;;;;;29.44;51.03;100303.44;1723489;81;21060;-69
2021/07/28 09:34:25;;;;;;;15.68;10.93;;;;;;;29.46;50.64;100297.23;1742979;80;21137;-68
2021/07/28 09:36:55;;;;;;;22.55;12.37;;;;;;;29.54;50.49;100298.15;1748620;80;21054;-72
2021/07/28 09:39:41;;;;;;;20.00;12.65;;;;;;;29.62;50.83;100295.52;1744288;80;21115;-71
2021/07/28 09:42:19;;;;;;;13.68;10.20;;;;;;;29.73;51.19;100294.59;1742850;81;22165;-69
2021/07/28 09:44:53;;;;;;;11.75;9.23;;;;;;;29.87;50.34;100301.02;1707391;81;21055;-71
2021/07/28 09:47:22;;;;;;;10.87;8.73;;;;;;;29.98;48.89;100289.22;1749425;81;21054;-72
2021/07/28 09:50:10;;;;;;;11.43;8.95;;;;;;;30.07;49.20;100297.17;1721269;81;21086;-71
2021/07/28 09:52:38;;;;;;;11.80;10.10;;;;;;;30.13;48.62;100292.09;1746002;80;22259;-70
2021/07/28 09:55:30;;;;;;;11.70;9.73;;;;;;;30.19;48.70;100287.02;1745219;80;21078;-68
2021/07/28 09:58:00;;;;;;;13.55;10.05;;;;;;;30.25;48.28;100289.23;1746489;80;21042;-73
2021/07/28 10:00:28;;;;;;;11.83;9.95;;;;;;;30.31;48.94;100280.59;1726273;81;21094;-67
2021/07/28 10:03:00;;;;;;;13.08;10.68;;;;;;;30.37;48.10;100279.05;1745739;80;21576;-68
2021/07/28 10:05:28;;;;;;;12.70;9.65;;;;;;;30.42;48.38;100282.36;1730733;81;21350;-70
2021/07/28 10:08:00;;;;;;;16.12;10.10;;;;;;;30.47;47.99;100285.67;1744634;81;21061;-70
2021/07/28 10:10:27;;;;;;;11.70;9.78;;;;;;;30.50;47.86;100275.11;1748767;80;21633;-72
2021/07/28 10:12:53;;;;;;;11.63;10.23;;;;;;;30.58;47.83;100275.70;1734309;81;21644;-67
2021/07/28 10:15:23;;;;;;;13.50;8.78;;;;;;;30.65;47.38;100269.51;1720468;81;21600;-67
2021/07/28 10:17:51;;;;;;;11.70;8.00;;;;;;;30.72;45.57;100270.13;1743763;80;21070;-70
2021/07/28 10:20:17;;;;;;;11.00;8.33;;;;;;;30.75;44.98;100277.22;1731440;81;21094;-68
2021/07/28 10:22:44;;;;;;;11.18;8.95;;;;;;;30.79;44.49;100272.62;1739152;80;21093;-69
2021/07/28 10:25:14;;;;;;;12.80;9.55;;;;;;;30.83;44.80;100260.95;1750456;80;21055;-68
2021/07/28 10:27:47;;;;;;;12.95;8.80;;;;;;;30.89;44.66;100259.92;1730525;81;21011;-73
2021/07/28 10:30:14;;;;;;;11.75;8.30;;;;;;;30.95;44.81;100265.42;1744768;81;21088;-68
2021/07/28 10:32:44;;;;;;;13.55;8.55;;;;;;;30.98;45.51;100266.27;1740680;80;21071;-68
2021/07/28 10:35:21;;;;;;;11.97;8.68;;;;;;;31.05;44.48;100264.13;1744170;81;21058;-69
2021/07/28 10:37:56;;;;;;;11.18;8.75;;;;;;;31.09;44.23;100261.19;1740854;81;21601;-69
2021/07/28 10:40:32;;;;;;;10.90;8.05;;;;;;;31.17;43.94;100259.33;1743251;80;21082;-69
2021/07/28 10:43:01;;;;;;;13.68;8.58;;;;;;;31.28;43.89;100264.27;1745455;80;21133;-72
2021/07/28 10:45:48;;;;;;;11.73;8.83;;;;;;;31.36;43.85;100261.05;1731034;81;21141;-67
2021/07/28 10:48:50;;;;;;;9.75;7.70;;;;;;;31.44;44.00;100257.83;1732470;80;21624;-67
2021/07/28 10:51:52;;;;;;;11.65;8.78;;;;;;;31.55;43.25;100247.84;1724840;81;21011;-65
2021/07/28 10:54:20;;;;;;;10.63;7.95;;;;;;;31.64;43.02;100264.45;1726792;81;21046;-65
2021/07/28 10:57:07;;;;;;;9.88;7.87;;;;;;;31.68;42.16;100247.89;1711006;80;21827;-70
2021/07/28 10:59:41;;;;;;;9.38;8.25;;;;;;;31.70;42.74;100243.55;1744009;80;21128;-67
2021/07/28 11:02:08;;;;;;;10.00;7.97;;;;;;;31.80;42.51;100228.62;1736860;80;21052;-68
2021/07/28 11:04:36;;;;;;;10.93;7.78;;;;;;;31.86;42.61;100239.80;1738646;80;21074;-66
2021/07/28 11:07:02;;;;;;;13.60;9.00;;;;;;;31.95;42.30;100237.36;1746250;80;21136;-68
2021/07/28 11:09:30;;;;;;;11.22;8.38;;;;;;;32.05;42.07;100244.18;1746127;81;21111;-70
2021/07/28 11:11:59;;;;;;;11.48;8.10;;;;;;;32.12;41.86;100234.42;1741199;80;21309;-67
2021/07/28 11:14:26;;;;;;;13.48;8.28;;;;;;;32.18;41.62;100241.52;1743706;80;21126;-70
2021/07/28 11:16:53;;;;;;;12.95;8.68;;;;;;;32.17;41.17;100229.80;1732394;81;21106;-69
2021/07/28 11:19:20;;;;;;;11.55;7.28;;;;;;;32.19;41.47;100237.14;1722699;81;21062;-72